sensor_id;sensor_type;location;lat;lon;timestamp;P1;durP1;ratioP1;P2;durP2;ratioP2
72127;SDS011;60000;51.030;7.024;2023-02-04T00:01:38;17.73;;;2.23;;
72127;SDS011;60000;51.030;7.024;2023-02-04T00:04:03;12.10;;;2.27;;
72127;SDS011;60000;51.030;7.024;2023-02-04T00:06:28;14.93;;;2.83;;
72127;SDS011;60000;51.030;7.024;2023-02-04T00:08:54;14.00;;;2.25;;
72127;SDS011;60000;51.030;7.024;2023-02-04T00:11:19;13.50;;;2.40;;
72127;SDS011;60000;51.030;7.024;2023-02-04T00:13:45;12.40;;;1.90;;
72127;SDS011;60000;51.030;7.024;2023-02-04T00:16:10;16.23;;;2.33;;
72127;SDS011;60000;51.030;7.024;2023-02-04T00:18:35;12.60;;;2.30;;
72127;SDS011;60000;51.030;7.024;2023-02-04T00:21:01;14.30;;;2.33;;
72127;SDS011;60000;51.030;7.024;2023-02-04T00:23:26;19.50;;;3.03;;
72127;SDS011;60000;51.030;7.024;2023-02-04T00:25:51;19.07;;;3.17;;
72127;SDS011;60000;51.030;7.024;2023-02-04T00:28:17;13.23;;;1.93;;
72127;SDS011;60000;51.030;7.024;2023-02-04T00:30:43;17.53;;;2.37;;
72127;SDS011;60000;51.030;7.024;2023-02-04T00:33:08;12.93;;;2.40;;
72127;SDS011;60000;51.030;7.024;2023-02-04T00:35:34;16.97;;;2.67;;
72127;SDS011;60000;51.030;7.024;2023-02-04T00:38:01;16.05;;;2.53;;
72127;SDS011;60000;51.030;7.024;2023-02-04T00:40:27;19.17;;;3.05;;
72127;SDS011;60000;51.030;7.024;2023-02-04T00:42:52;16.03;;;2.70;;
72127;SDS011;60000;51.030;7.024;2023-02-04T00:45:17;12.10;;;2.20;;
72127;SDS011;60000;51.030;7.024;2023-02-04T00:47:43;17.00;;;2.90;;
72127;SDS011;60000;51.030;7.024;2023-02-04T00:50:08;13.50;;;2.77;;
72127;SDS011;60000;51.030;7.024;2023-02-04T00:52:34;18.87;;;2.67;;
72127;SDS011;60000;51.030;7.024;2023-02-04T00:54:59;11.70;;;2.07;;
72127;SDS011;60000;51.030;7.024;2023-02-04T00:57:24;15.05;;;2.40;;
72127;SDS011;60000;51.030;7.024;2023-02-04T00:59:50;17.27;;;2.63;;
72127;SDS011;60000;51.030;7.024;2023-02-04T01:02:15;17.67;;;2.87;;
72127;SDS011;60000;51.030;7.024;2023-02-04T01:04:40;14.67;;;2.00;;
72127;SDS011;60000;51.030;7.024;2023-02-04T01:07:05;15.50;;;2.40;;
72127;SDS011;60000;51.030;7.024;2023-02-04T01:09:31;15.63;;;2.00;;
72127;SDS011;60000;51.030;7.024;2023-02-04T01:11:56;15.97;;;2.80;;
72127;SDS011;60000;51.030;7.024;2023-02-04T01:14:21;14.57;;;2.20;;
72127;SDS011;60000;51.030;7.024;2023-02-04T01:16:47;11.50;;;2.10;;
72127;SDS011;60000;51.030;7.024;2023-02-04T01:19:12;15.52;;;2.40;;
72127;SDS011;60000;51.030;7.024;2023-02-04T01:21:38;13.50;;;1.97;;
72127;SDS011;60000;51.030;7.024;2023-02-04T01:24:03;13.23;;;2.90;;
72127;SDS011;60000;51.030;7.024;2023-02-04T01:26:28;14.10;;;2.20;;
72127;SDS011;60000;51.030;7.024;2023-02-04T01:28:54;14.17;;;2.20;;
72127;SDS011;60000;51.030;7.024;2023-02-04T01:31:19;21.00;;;3.03;;
72127;SDS011;60000;51.030;7.024;2023-02-04T01:33:44;15.23;;;2.20;;
72127;SDS011;60000;51.030;7.024;2023-02-04T01:36:10;12.07;;;2.37;;
72127;SDS011;60000;51.030;7.024;2023-02-04T01:38:35;14.23;;;2.30;;
72127;SDS011;60000;51.030;7.024;2023-02-04T01:41:01;11.30;;;2.40;;
72127;SDS011;60000;51.030;7.024;2023-02-04T01:43:28;19.85;;;3.30;;
72127;SDS011;60000;51.030;7.024;2023-02-04T01:45:53;12.80;;;2.30;;
72127;SDS011;60000;51.030;7.024;2023-02-04T01:48:19;13.77;;;2.23;;
72127;SDS011;60000;51.030;7.024;2023-02-04T01:50:50;15.48;;;2.30;;
72127;SDS011;60000;51.030;7.024;2023-02-04T01:53:19;17.02;;;2.83;;
72127;SDS011;60000;51.030;7.024;2023-02-04T01:55:47;12.55;;;2.03;;
72127;SDS011;60000;51.030;7.024;2023-02-04T01:58:13;13.27;;;2.80;;
72127;SDS011;60000;51.030;7.024;2023-02-04T02:00:39;16.98;;;2.38;;
72127;SDS011;60000;51.030;7.024;2023-02-04T02:03:06;11.53;;;2.03;;
72127;SDS011;60000;51.030;7.024;2023-02-04T02:05:39;19.17;;;2.35;;
72127;SDS011;60000;51.030;7.024;2023-02-04T02:08:07;17.10;;;2.60;;
72127;SDS011;60000;51.030;7.024;2023-02-04T02:10:34;15.83;;;2.70;;
72127;SDS011;60000;51.030;7.024;2023-02-04T02:13:02;20.15;;;3.20;;
72127;SDS011;60000;51.030;7.024;2023-02-04T02:15:29;15.85;;;2.78;;
72127;SDS011;60000;51.030;7.024;2023-02-04T02:17:55;9.55;;;1.98;;
72127;SDS011;60000;51.030;7.024;2023-02-04T02:20:21;14.73;;;2.27;;
72127;SDS011;60000;51.030;7.024;2023-02-04T02:25:28;6.93;;;1.30;;
72127;SDS011;60000;51.030;7.024;2023-02-04T02:27:54;10.73;;;2.03;;
72127;SDS011;60000;51.030;7.024;2023-02-04T02:30:20;8.45;;;1.30;;
72127;SDS011;60000;51.030;7.024;2023-02-04T02:32:46;11.70;;;2.15;;
72127;SDS011;60000;51.030;7.024;2023-02-04T02:35:14;14.47;;;2.00;;
72127;SDS011;60000;51.030;7.024;2023-02-04T02:37:40;20.23;;;2.50;;
72127;SDS011;60000;51.030;7.024;2023-02-04T02:40:05;13.17;;;2.60;;
72127;SDS011;60000;51.030;7.024;2023-02-04T02:42:32;13.95;;;2.50;;
72127;SDS011;60000;51.030;7.024;2023-02-04T02:44:57;11.18;;;2.10;;
72127;SDS011;60000;51.030;7.024;2023-02-04T02:47:23;13.07;;;2.10;;
72127;SDS011;60000;51.030;7.024;2023-02-04T02:49:49;13.38;;;2.00;;
72127;SDS011;60000;51.030;7.024;2023-02-04T02:52:17;13.73;;;2.23;;
72127;SDS011;60000;51.030;7.024;2023-02-04T02:54:42;17.23;;;2.33;;
72127;SDS011;60000;51.030;7.024;2023-02-04T02:57:12;15.00;;;3.15;;
72127;SDS011;60000;51.030;7.024;2023-02-04T02:59:43;14.43;;;2.67;;
72127;SDS011;60000;51.030;7.024;2023-02-04T03:02:09;17.60;;;2.50;;
72127;SDS011;60000;51.030;7.024;2023-02-04T03:04:39;10.93;;;2.05;;
72127;SDS011;60000;51.030;7.024;2023-02-04T03:07:08;13.52;;;2.25;;
72127;SDS011;60000;51.030;7.024;2023-02-04T03:09:34;15.63;;;2.10;;
72127;SDS011;60000;51.030;7.024;2023-02-04T03:12:00;15.65;;;2.60;;
72127;SDS011;60000;51.030;7.024;2023-02-04T03:14:26;12.98;;;2.20;;
72127;SDS011;60000;51.030;7.024;2023-02-04T03:16:52;13.83;;;2.20;;
72127;SDS011;60000;51.030;7.024;2023-02-04T03:19:19;14.93;;;2.22;;
72127;SDS011;60000;51.030;7.024;2023-02-04T03:21:46;14.80;;;2.15;;
72127;SDS011;60000;51.030;7.024;2023-02-04T03:24:11;10.57;;;2.13;;
72127;SDS011;60000;51.030;7.024;2023-02-04T03:26:36;9.67;;;1.70;;
72127;SDS011;60000;51.030;7.024;2023-02-04T03:29:04;13.55;;;2.03;;
72127;SDS011;60000;51.030;7.024;2023-02-04T03:31:31;13.30;;;2.50;;
72127;SDS011;60000;51.030;7.024;2023-02-04T03:33:57;11.57;;;2.40;;
72127;SDS011;60000;51.030;7.024;2023-02-04T03:36:22;8.03;;;1.73;;
72127;SDS011;60000;51.030;7.024;2023-02-04T03:38:47;11.90;;;2.53;;
72127;SDS011;60000;51.030;7.024;2023-02-04T03:41:13;12.47;;;2.23;;
72127;SDS011;60000;51.030;7.024;2023-02-04T03:43:38;16.07;;;1.93;;
72127;SDS011;60000;51.030;7.024;2023-02-04T03:46:03;11.47;;;2.57;;
72127;SDS011;60000;51.030;7.024;2023-02-04T03:48:29;12.20;;;2.20;;
72127;SDS011;60000;51.030;7.024;2023-02-04T03:50:54;15.70;;;2.03;;
72127;SDS011;60000;51.030;7.024;2023-02-04T03:53:19;17.43;;;2.47;;
72127;SDS011;60000;51.030;7.024;2023-02-04T03:55:46;13.27;;;2.05;;
72127;SDS011;60000;51.030;7.024;2023-02-04T03:58:11;16.40;;;2.65;;
72127;SDS011;60000;51.030;7.024;2023-02-04T04:00:37;15.97;;;2.37;;
72127;SDS011;60000;51.030;7.024;2023-02-04T04:03:02;12.20;;;2.30;;
72127;SDS011;60000;51.030;7.024;2023-02-04T04:05:27;10.27;;;2.33;;
72127;SDS011;60000;51.030;7.024;2023-02-04T04:07:53;11.00;;;2.03;;
72127;SDS011;60000;51.030;7.024;2023-02-04T04:10:18;12.27;;;2.20;;
72127;SDS011;60000;51.030;7.024;2023-02-04T04:12:43;10.27;;;1.80;;
72127;SDS011;60000;51.030;7.024;2023-02-04T04:15:09;11.27;;;1.98;;
72127;SDS011;60000;51.030;7.024;2023-02-04T04:17:34;15.87;;;2.53;;
72127;SDS011;60000;51.030;7.024;2023-02-04T04:19:59;11.60;;;2.27;;
72127;SDS011;60000;51.030;7.024;2023-02-04T04:22:24;10.10;;;2.17;;
72127;SDS011;60000;51.030;7.024;2023-02-04T04:24:50;11.40;;;1.97;;
72127;SDS011;60000;51.030;7.024;2023-02-04T04:27:15;9.40;;;1.90;;
72127;SDS011;60000;51.030;7.024;2023-02-04T04:29:40;17.77;;;2.37;;
72127;SDS011;60000;51.030;7.024;2023-02-04T04:32:06;10.00;;;1.90;;
72127;SDS011;60000;51.030;7.024;2023-02-04T04:34:33;9.43;;;2.08;;
72127;SDS011;60000;51.030;7.024;2023-02-04T04:36:58;13.93;;;2.00;;
72127;SDS011;60000;51.030;7.024;2023-02-04T04:39:24;8.63;;;1.90;;
72127;SDS011;60000;51.030;7.024;2023-02-04T04:41:50;13.40;;;2.00;;
72127;SDS011;60000;51.030;7.024;2023-02-04T04:44:15;12.53;;;2.13;;
72127;SDS011;60000;51.030;7.024;2023-02-04T04:46:40;11.50;;;2.10;;
72127;SDS011;60000;51.030;7.024;2023-02-04T04:49:06;11.63;;;2.13;;
72127;SDS011;60000;51.030;7.024;2023-02-04T04:51:31;11.53;;;3.03;;
72127;SDS011;60000;51.030;7.024;2023-02-04T04:53:57;12.60;;;1.95;;
72127;SDS011;60000;51.030;7.024;2023-02-04T04:56:23;10.68;;;2.40;;
72127;SDS011;60000;51.030;7.024;2023-02-04T04:58:48;17.53;;;2.80;;
72127;SDS011;60000;51.030;7.024;2023-02-04T05:01:13;13.63;;;2.20;;
72127;SDS011;60000;51.030;7.024;2023-02-04T05:03:39;15.03;;;2.17;;
72127;SDS011;60000;51.030;7.024;2023-02-04T05:06:04;14.60;;;2.10;;
72127;SDS011;60000;51.030;7.024;2023-02-04T05:08:29;15.67;;;2.10;;
72127;SDS011;60000;51.030;7.024;2023-02-04T05:10:55;12.27;;;1.90;;
72127;SDS011;60000;51.030;7.024;2023-02-04T05:13:20;10.90;;;1.70;;
72127;SDS011;60000;51.030;7.024;2023-02-04T05:15:48;17.17;;;2.95;;
72127;SDS011;60000;51.030;7.024;2023-02-04T05:18:13;17.77;;;2.53;;
72127;SDS011;60000;51.030;7.024;2023-02-04T05:20:38;19.03;;;2.67;;
72127;SDS011;60000;51.030;7.024;2023-02-04T05:23:03;17.37;;;2.60;;
72127;SDS011;60000;51.030;7.024;2023-02-04T05:25:29;12.52;;;2.28;;
72127;SDS011;60000;51.030;7.024;2023-02-04T05:27:54;18.70;;;2.27;;
72127;SDS011;60000;51.030;7.024;2023-02-04T05:30:19;15.03;;;2.80;;
72127;SDS011;60000;51.030;7.024;2023-02-04T05:32:45;10.40;;;2.07;;
72127;SDS011;60000;51.030;7.024;2023-02-04T05:35:10;9.43;;;1.97;;
72127;SDS011;60000;51.030;7.024;2023-02-04T05:37:35;10.70;;;2.13;;
72127;SDS011;60000;51.030;7.024;2023-02-04T05:40:01;13.43;;;2.70;;
72127;SDS011;60000;51.030;7.024;2023-02-04T05:42:26;15.18;;;2.53;;
72127;SDS011;60000;51.030;7.024;2023-02-04T05:44:52;13.07;;;2.10;;
72127;SDS011;60000;51.030;7.024;2023-02-04T05:47:17;16.93;;;2.80;;
72127;SDS011;60000;51.030;7.024;2023-02-04T05:49:44;10.02;;;2.20;;
72127;SDS011;60000;51.030;7.024;2023-02-04T05:52:10;12.50;;;2.20;;
72127;SDS011;60000;51.030;7.024;2023-02-04T05:54:35;14.20;;;2.10;;
72127;SDS011;60000;51.030;7.024;2023-02-04T05:57:01;9.20;;;2.23;;
72127;SDS011;60000;51.030;7.024;2023-02-04T05:59:26;12.73;;;2.43;;
72127;SDS011;60000;51.030;7.024;2023-02-04T06:01:51;11.43;;;2.73;;
72127;SDS011;60000;51.030;7.024;2023-02-04T06:04:16;14.67;;;2.00;;
72127;SDS011;60000;51.030;7.024;2023-02-04T06:06:42;9.87;;;2.30;;
72127;SDS011;60000;51.030;7.024;2023-02-04T06:09:08;11.95;;;2.80;;
72127;SDS011;60000;51.030;7.024;2023-02-04T06:11:33;11.17;;;2.10;;
72127;SDS011;60000;51.030;7.024;2023-02-04T06:13:59;10.80;;;1.97;;
72127;SDS011;60000;51.030;7.024;2023-02-04T06:16:24;13.38;;;2.30;;
72127;SDS011;60000;51.030;7.024;2023-02-04T06:18:49;11.00;;;1.90;;
72127;SDS011;60000;51.030;7.024;2023-02-04T06:21:15;11.43;;;1.83;;
72127;SDS011;60000;51.030;7.024;2023-02-04T06:23:40;12.00;;;2.10;;
72127;SDS011;60000;51.030;7.024;2023-02-04T06:26:06;12.77;;;2.00;;
72127;SDS011;60000;51.030;7.024;2023-02-04T06:28:31;12.90;;;2.43;;
72127;SDS011;60000;51.030;7.024;2023-02-04T06:30:56;8.40;;;2.03;;
72127;SDS011;60000;51.030;7.024;2023-02-04T06:33:23;14.20;;;2.42;;
72127;SDS011;60000;51.030;7.024;2023-02-04T06:35:48;8.93;;;2.00;;
72127;SDS011;60000;51.030;7.024;2023-02-04T06:38:14;10.65;;;2.10;;
72127;SDS011;60000;51.030;7.024;2023-02-04T06:40:39;11.80;;;1.90;;
72127;SDS011;60000;51.030;7.024;2023-02-04T06:43:05;8.70;;;2.07;;
72127;SDS011;60000;51.030;7.024;2023-02-04T06:45:30;12.50;;;2.30;;
72127;SDS011;60000;51.030;7.024;2023-02-04T06:47:56;13.60;;;2.55;;
72127;SDS011;60000;51.030;7.024;2023-02-04T06:50:21;5.87;;;1.70;;
72127;SDS011;60000;51.030;7.024;2023-02-04T06:52:46;12.33;;;2.63;;
72127;SDS011;60000;51.030;7.024;2023-02-04T06:55:15;6.85;;;1.60;;
72127;SDS011;60000;51.030;7.024;2023-02-04T06:57:41;9.27;;;2.17;;
72127;SDS011;60000;51.030;7.024;2023-02-04T07:00:07;10.57;;;2.55;;
72127;SDS011;60000;51.030;7.024;2023-02-04T07:02:34;10.40;;;1.80;;
72127;SDS011;60000;51.030;7.024;2023-02-04T07:05:00;14.00;;;2.58;;
72127;SDS011;60000;51.030;7.024;2023-02-04T07:07:26;8.27;;;1.85;;
72127;SDS011;60000;51.030;7.024;2023-02-04T07:09:51;9.55;;;2.00;;
72127;SDS011;60000;51.030;7.024;2023-02-04T07:12:16;11.00;;;2.43;;
72127;SDS011;60000;51.030;7.024;2023-02-04T07:14:42;7.10;;;1.63;;
72127;SDS011;60000;51.030;7.024;2023-02-04T07:17:07;9.63;;;2.27;;
72127;SDS011;60000;51.030;7.024;2023-02-04T07:19:32;7.43;;;2.00;;
72127;SDS011;60000;51.030;7.024;2023-02-04T07:21:59;7.30;;;1.80;;
72127;SDS011;60000;51.030;7.024;2023-02-04T07:24:24;8.83;;;2.40;;
72127;SDS011;60000;51.030;7.024;2023-02-04T07:26:49;9.87;;;2.57;;
72127;SDS011;60000;51.030;7.024;2023-02-04T07:29:15;13.65;;;3.38;;
72127;SDS011;60000;51.030;7.024;2023-02-04T07:31:42;8.18;;;2.42;;
72127;SDS011;60000;51.030;7.024;2023-02-04T07:34:09;8.83;;;2.43;;
72127;SDS011;60000;51.030;7.024;2023-02-04T07:36:35;9.85;;;2.30;;
72127;SDS011;60000;51.030;7.024;2023-02-04T07:39:00;13.93;;;2.67;;
72127;SDS011;60000;51.030;7.024;2023-02-04T07:41:26;11.18;;;2.47;;
72127;SDS011;60000;51.030;7.024;2023-02-04T07:43:51;10.35;;;3.08;;
72127;SDS011;60000;51.030;7.024;2023-02-04T07:46:16;12.53;;;3.00;;
72127;SDS011;60000;51.030;7.024;2023-02-04T07:48:42;10.57;;;3.10;;
72127;SDS011;60000;51.030;7.024;2023-02-04T07:51:07;13.43;;;2.97;;
72127;SDS011;60000;51.030;7.024;2023-02-04T07:53:34;11.73;;;3.15;;
72127;SDS011;60000;51.030;7.024;2023-02-04T07:55:59;9.57;;;2.73;;
72127;SDS011;60000;51.030;7.024;2023-02-04T07:58:25;7.43;;;2.60;;
72127;SDS011;60000;51.030;7.024;2023-02-04T08:00:50;9.30;;;2.90;;
72127;SDS011;60000;51.030;7.024;2023-02-04T08:03:15;7.77;;;2.20;;
72127;SDS011;60000;51.030;7.024;2023-02-04T08:05:41;8.63;;;2.22;;
72127;SDS011;60000;51.030;7.024;2023-02-04T08:08:06;10.23;;;2.77;;
72127;SDS011;60000;51.030;7.024;2023-02-04T08:10:31;8.17;;;2.20;;
72127;SDS011;60000;51.030;7.024;2023-02-04T08:12:58;7.35;;;2.17;;
72127;SDS011;60000;51.030;7.024;2023-02-04T08:15:23;7.70;;;2.10;;
72127;SDS011;60000;51.030;7.024;2023-02-04T08:17:48;5.40;;;1.60;;
72127;SDS011;60000;51.030;7.024;2023-02-04T08:20:13;13.20;;;3.07;;
72127;SDS011;60000;51.030;7.024;2023-02-04T08:22:40;15.95;;;3.90;;
72127;SDS011;60000;51.030;7.024;2023-02-04T08:25:06;15.60;;;3.33;;
72127;SDS011;60000;51.030;7.024;2023-02-04T08:27:31;11.43;;;3.33;;
72127;SDS011;60000;51.030;7.024;2023-02-04T08:29:56;16.52;;;3.15;;
72127;SDS011;60000;51.030;7.024;2023-02-04T08:32:22;9.87;;;2.20;;
72127;SDS011;60000;51.030;7.024;2023-02-04T08:34:47;11.33;;;2.57;;
72127;SDS011;60000;51.030;7.024;2023-02-04T08:37:13;14.43;;;3.07;;
72127;SDS011;60000;51.030;7.024;2023-02-04T08:39:39;16.45;;;4.10;;
72127;SDS011;60000;51.030;7.024;2023-02-04T08:42:08;12.02;;;3.45;;
72127;SDS011;60000;51.030;7.024;2023-02-04T08:44:33;10.50;;;2.33;;
72127;SDS011;60000;51.030;7.024;2023-02-04T08:46:59;12.77;;;2.73;;
72127;SDS011;60000;51.030;7.024;2023-02-04T08:49:24;9.70;;;2.47;;
72127;SDS011;60000;51.030;7.024;2023-02-04T08:51:49;14.50;;;3.00;;
72127;SDS011;60000;51.030;7.024;2023-02-04T08:54:14;18.53;;;3.40;;
72127;SDS011;60000;51.030;7.024;2023-02-04T08:56:40;17.53;;;3.60;;
72127;SDS011;60000;51.030;7.024;2023-02-04T08:59:05;23.77;;;4.10;;
72127;SDS011;60000;51.030;7.024;2023-02-04T09:01:30;13.60;;;3.03;;
72127;SDS011;60000;51.030;7.024;2023-02-04T09:03:56;17.58;;;3.50;;
72127;SDS011;60000;51.030;7.024;2023-02-04T09:06:21;12.83;;;3.57;;
72127;SDS011;60000;51.030;7.024;2023-02-04T09:08:46;20.60;;;5.67;;
72127;SDS011;60000;51.030;7.024;2023-02-04T09:11:12;28.00;;;8.90;;
72127;SDS011;60000;51.030;7.024;2023-02-04T09:13:37;18.53;;;3.50;;
72127;SDS011;60000;51.030;7.024;2023-02-04T09:16:03;13.77;;;3.80;;
72127;SDS011;60000;51.030;7.024;2023-02-04T09:18:29;15.87;;;3.97;;
72127;SDS011;60000;51.030;7.024;2023-02-04T09:20:56;14.98;;;4.05;;
72127;SDS011;60000;51.030;7.024;2023-02-04T09:23:21;14.93;;;3.27;;
72127;SDS011;60000;51.030;7.024;2023-02-04T09:25:47;13.93;;;3.33;;
72127;SDS011;60000;51.030;7.024;2023-02-04T09:28:13;13.33;;;3.50;;
72127;SDS011;60000;51.030;7.024;2023-02-04T09:30:41;17.42;;;3.80;;
72127;SDS011;60000;51.030;7.024;2023-02-04T09:33:07;16.30;;;4.40;;
72127;SDS011;60000;51.030;7.024;2023-02-04T09:35:34;15.98;;;3.88;;
72127;SDS011;60000;51.030;7.024;2023-02-04T09:37:59;18.63;;;4.50;;
72127;SDS011;60000;51.030;7.024;2023-02-04T09:40:26;14.73;;;3.97;;
72127;SDS011;60000;51.030;7.024;2023-02-04T09:42:52;16.33;;;4.10;;
72127;SDS011;60000;51.030;7.024;2023-02-04T09:45:20;13.40;;;3.40;;
72127;SDS011;60000;51.030;7.024;2023-02-04T09:47:48;13.15;;;3.35;;
72127;SDS011;60000;51.030;7.024;2023-02-04T09:50:15;15.23;;;3.53;;
72127;SDS011;60000;51.030;7.024;2023-02-04T09:52:44;11.77;;;2.47;;
72127;SDS011;60000;51.030;7.024;2023-02-04T09:55:13;13.10;;;3.08;;
72127;SDS011;60000;51.030;7.024;2023-02-04T09:57:40;10.97;;;4.00;;
72127;SDS011;60000;51.030;7.024;2023-02-04T10:00:16;20.40;;;5.03;;
72127;SDS011;60000;51.030;7.024;2023-02-04T10:02:46;17.93;;;4.20;;
72127;SDS011;60000;51.030;7.024;2023-02-04T10:05:15;26.58;;;5.68;;
72127;SDS011;60000;51.030;7.024;2023-02-04T10:07:45;20.20;;;4.67;;
72127;SDS011;60000;51.030;7.024;2023-02-04T10:10:18;11.27;;;3.83;;
72127;SDS011;60000;51.030;7.024;2023-02-04T10:12:46;23.10;;;5.28;;
72127;SDS011;60000;51.030;7.024;2023-02-04T10:15:14;15.13;;;4.82;;
72127;SDS011;60000;51.030;7.024;2023-02-04T10:17:43;14.05;;;4.78;;
72127;SDS011;60000;51.030;7.024;2023-02-04T10:20:15;24.98;;;6.05;;
72127;SDS011;60000;51.030;7.024;2023-02-04T10:22:42;21.63;;;6.87;;
72127;SDS011;60000;51.030;7.024;2023-02-04T10:25:11;27.85;;;6.82;;
72127;SDS011;60000;51.030;7.024;2023-02-04T10:27:55;24.37;;;7.30;;
72127;SDS011;60000;51.030;7.024;2023-02-04T10:30:23;15.15;;;5.25;;
72127;SDS011;60000;51.030;7.024;2023-02-04T10:32:49;20.90;;;5.80;;
72127;SDS011;60000;51.030;7.024;2023-02-04T10:35:17;26.23;;;6.78;;
72127;SDS011;60000;51.030;7.024;2023-02-04T10:37:43;15.48;;;5.10;;
72127;SDS011;60000;51.030;7.024;2023-02-04T10:40:24;14.70;;;4.60;;
72127;SDS011;60000;51.030;7.024;2023-02-04T10:42:50;19.55;;;6.55;;
72127;SDS011;60000;51.030;7.024;2023-02-04T10:45:20;19.05;;;5.88;;
72127;SDS011;60000;51.030;7.024;2023-02-04T10:47:49;18.38;;;6.00;;
72127;SDS011;60000;51.030;7.024;2023-02-04T10:50:16;20.07;;;6.17;;
72127;SDS011;60000;51.030;7.024;2023-02-04T10:52:44;15.05;;;5.70;;
72127;SDS011;60000;51.030;7.024;2023-02-04T10:55:16;20.60;;;6.20;;
72127;SDS011;60000;51.030;7.024;2023-02-04T10:57:44;16.42;;;5.30;;
72127;SDS011;60000;51.030;7.024;2023-02-04T11:00:16;15.38;;;5.70;;
72127;SDS011;60000;51.030;7.024;2023-02-04T11:02:57;15.53;;;5.00;;
72127;SDS011;60000;51.030;7.024;2023-02-04T11:05:28;16.42;;;5.97;;
72127;SDS011;60000;51.030;7.024;2023-02-04T11:07:58;18.67;;;6.00;;
72127;SDS011;60000;51.030;7.024;2023-02-04T11:10:27;15.35;;;5.60;;
72127;SDS011;60000;51.030;7.024;2023-02-04T11:20:49;22.05;;;6.20;;
72127;SDS011;60000;51.030;7.024;2023-02-04T11:23:28;20.90;;;6.40;;
72127;SDS011;60000;51.030;7.024;2023-02-04T11:26:06;23.75;;;7.03;;
72127;SDS011;60000;51.030;7.024;2023-02-04T11:28:54;18.40;;;5.50;;
72127;SDS011;60000;51.030;7.024;2023-02-04T11:33:45;20.27;;;6.03;;
72127;SDS011;60000;51.030;7.024;2023-02-04T11:36:12;22.77;;;6.38;;
72127;SDS011;60000;51.030;7.024;2023-02-04T11:38:43;16.75;;;5.00;;
72127;SDS011;60000;51.030;7.024;2023-02-04T11:41:14;21.77;;;6.78;;
72127;SDS011;60000;51.030;7.024;2023-02-04T11:43:45;21.95;;;6.38;;
72127;SDS011;60000;51.030;7.024;2023-02-04T11:46:15;15.02;;;5.18;;
72127;SDS011;60000;51.030;7.024;2023-02-04T11:48:42;14.02;;;4.75;;
72127;SDS011;60000;51.030;7.024;2023-02-04T11:51:13;11.63;;;4.20;;
72127;SDS011;60000;51.030;7.024;2023-02-04T11:53:40;12.82;;;4.75;;
72127;SDS011;60000;51.030;7.024;2023-02-04T11:56:06;26.77;;;7.60;;
72127;SDS011;60000;51.030;7.024;2023-02-04T11:58:31;23.70;;;7.67;;
72127;SDS011;60000;51.030;7.024;2023-02-04T12:00:57;18.27;;;7.18;;
72127;SDS011;60000;51.030;7.024;2023-02-04T12:03:24;17.00;;;6.47;;
72127;SDS011;60000;51.030;7.024;2023-02-04T12:05:50;18.77;;;7.13;;
72127;SDS011;60000;51.030;7.024;2023-02-04T12:10:48;16.60;;;6.00;;
72127;SDS011;60000;51.030;7.024;2023-02-04T12:13:29;18.65;;;5.97;;
72127;SDS011;60000;51.030;7.024;2023-02-04T12:16:05;18.23;;;6.10;;
72127;SDS011;60000;51.030;7.024;2023-02-04T12:18:32;13.82;;;5.57;;
72127;SDS011;60000;51.030;7.024;2023-02-04T12:20:59;18.10;;;6.55;;
72127;SDS011;60000;51.030;7.024;2023-02-04T12:23:25;14.55;;;5.07;;
72127;SDS011;60000;51.030;7.024;2023-02-04T12:25:52;17.48;;;5.35;;
72127;SDS011;60000;51.030;7.024;2023-02-04T12:28:17;16.77;;;4.97;;
72127;SDS011;60000;51.030;7.024;2023-02-04T12:30:43;18.87;;;6.70;;
72127;SDS011;60000;51.030;7.024;2023-02-04T12:33:08;18.10;;;6.20;;
72127;SDS011;60000;51.030;7.024;2023-02-04T12:35:34;19.00;;;6.95;;
72127;SDS011;60000;51.030;7.024;2023-02-04T12:37:59;14.77;;;6.00;;
72127;SDS011;60000;51.030;7.024;2023-02-04T12:40:25;18.80;;;6.28;;
72127;SDS011;60000;51.030;7.024;2023-02-04T12:42:50;19.20;;;6.28;;
72127;SDS011;60000;51.030;7.024;2023-02-04T12:45:16;26.67;;;7.77;;
72127;SDS011;60000;51.030;7.024;2023-02-04T12:47:42;19.67;;;6.40;;
72127;SDS011;60000;51.030;7.024;2023-02-04T12:50:09;21.23;;;7.00;;
72127;SDS011;60000;51.030;7.024;2023-02-04T12:52:35;19.48;;;6.95;;
72127;SDS011;60000;51.030;7.024;2023-02-04T12:55:01;14.90;;;6.07;;
72127;SDS011;60000;51.030;7.024;2023-02-04T12:57:29;17.98;;;6.30;;
72127;SDS011;60000;51.030;7.024;2023-02-04T12:59:55;22.27;;;7.18;;
72127;SDS011;60000;51.030;7.024;2023-02-04T13:02:23;14.70;;;5.68;;
72127;SDS011;60000;51.030;7.024;2023-02-04T13:04:49;18.47;;;5.47;;
72127;SDS011;60000;51.030;7.024;2023-02-04T13:07:14;21.45;;;8.00;;
72127;SDS011;60000;51.030;7.024;2023-02-04T13:09:40;25.93;;;8.47;;
72127;SDS011;60000;51.030;7.024;2023-02-04T13:12:05;18.63;;;6.10;;
72127;SDS011;60000;51.030;7.024;2023-02-04T13:14:30;21.37;;;7.50;;
72127;SDS011;60000;51.030;7.024;2023-02-04T13:16:56;32.33;;;10.15;;
72127;SDS011;60000;51.030;7.024;2023-02-04T13:19:22;18.93;;;5.60;;
72127;SDS011;60000;51.030;7.024;2023-02-04T13:21:47;22.47;;;9.20;;
72127;SDS011;60000;51.030;7.024;2023-02-04T13:24:13;23.20;;;7.82;;
72127;SDS011;60000;51.030;7.024;2023-02-04T13:26:38;19.60;;;6.90;;
72127;SDS011;60000;51.030;7.024;2023-02-04T13:29:04;18.07;;;6.53;;
72127;SDS011;60000;51.030;7.024;2023-02-04T13:31:29;21.23;;;6.17;;
72127;SDS011;60000;51.030;7.024;2023-02-04T13:33:54;21.30;;;8.13;;
72127;SDS011;60000;51.030;7.024;2023-02-04T13:36:20;14.33;;;6.03;;
72127;SDS011;60000;51.030;7.024;2023-02-04T13:38:45;15.23;;;5.70;;
72127;SDS011;60000;51.030;7.024;2023-02-04T13:41:10;18.88;;;9.00;;
72127;SDS011;60000;51.030;7.024;2023-02-04T13:43:35;18.60;;;6.70;;
72127;SDS011;60000;51.030;7.024;2023-02-04T13:46:01;20.80;;;8.10;;
72127;SDS011;60000;51.030;7.024;2023-02-04T13:48:28;21.90;;;9.43;;
72127;SDS011;60000;51.030;7.024;2023-02-04T13:50:53;30.83;;;16.57;;
72127;SDS011;60000;51.030;7.024;2023-02-04T13:53:19;17.97;;;8.67;;
72127;SDS011;60000;51.030;7.024;2023-02-04T13:55:44;39.07;;;16.50;;
72127;SDS011;60000;51.030;7.024;2023-02-04T13:58:09;27.60;;;15.03;;
72127;SDS011;60000;51.030;7.024;2023-02-04T14:00:35;22.00;;;9.23;;
72127;SDS011;60000;51.030;7.024;2023-02-04T14:03:00;15.88;;;7.45;;
72127;SDS011;60000;51.030;7.024;2023-02-04T14:05:25;13.23;;;6.40;;
72127;SDS011;60000;51.030;7.024;2023-02-04T14:07:51;15.07;;;6.73;;
72127;SDS011;60000;51.030;7.024;2023-02-04T14:10:16;18.43;;;6.80;;
72127;SDS011;60000;51.030;7.024;2023-02-04T14:12:42;14.43;;;6.63;;
72127;SDS011;60000;51.030;7.024;2023-02-04T14:15:08;13.60;;;5.40;;
72127;SDS011;60000;51.030;7.024;2023-02-04T14:17:33;15.98;;;5.18;;
72127;SDS011;60000;51.030;7.024;2023-02-04T14:19:59;18.23;;;6.27;;
72127;SDS011;60000;51.030;7.024;2023-02-04T14:22:24;14.17;;;4.53;;
72127;SDS011;60000;51.030;7.024;2023-02-04T14:24:50;11.10;;;4.60;;
72127;SDS011;60000;51.030;7.024;2023-02-04T14:27:15;17.35;;;5.35;;
72127;SDS011;60000;51.030;7.024;2023-02-04T14:29:40;12.70;;;4.60;;
72127;SDS011;60000;51.030;7.024;2023-02-04T14:32:06;11.47;;;4.50;;
72127;SDS011;60000;51.030;7.024;2023-02-04T14:34:32;14.80;;;5.63;;
72127;SDS011;60000;51.030;7.024;2023-02-04T14:36:57;12.03;;;4.77;;
72127;SDS011;60000;51.030;7.024;2023-02-04T14:39:22;13.13;;;4.10;;
72127;SDS011;60000;51.030;7.024;2023-02-04T14:41:48;17.47;;;5.70;;
72127;SDS011;60000;51.030;7.024;2023-02-04T14:44:13;12.83;;;4.70;;
72127;SDS011;60000;51.030;7.024;2023-02-04T14:46:44;12.52;;;4.30;;